Flight Track Log - Related Links

Times and Time Zones

All times are in EDT time to prevent confusion due to time zone crossing. See the N6ZQ flight status page for this flight to view local times or setup timezone preferences in your user account.

Time Position Orientation Groundspeed Altitude Reporting Facility
EDT Latitude Longitude Course Direction KTS MPH feet Rate Location/Type
Sun 12:38:36 PM 37.4500 -122.4333 North 138 159 2,600  Level Northern Cal TRACON
Sun 12:39:36 PM 37.4333 -122.3833 113° Southeast 168 193 3,400 742 Climbing Northern Cal TRACON
Sun 12:40:13 PM 37.4161 -122.3614 135° Southeast 166 191 3,800 306 Climbing Oakland Center
Sun 12:41:14 PM 37.4378 -122.3086 63° Northeast 198 228 3,900 439 Climbing Oakland Center
Sun 12:42:16 PM 37.4833 -122.2831 24° Northeast 187 215 4,700 732 Climbing Oakland Center
Sun 12:43:00 PM 37.4481 -122.2667 North  Level FlightAware Approximate
Sun 12:43:17 PM 37.5383 -122.2533 23° Northeast 182 209 5,400  Level Oakland Center
Sun 12:44:19 PM 37.5819 -122.2242 28° Northeast 179 206 6,000 732 Climbing Oakland Center
Sun 12:45:20 PM 37.6164 -122.1803 45° Northeast 176 203 6,900 780 Climbing Oakland Center
Sun 12:46:22 PM 37.6542 -122.1422 39° Northeast 175 201 7,600 634 Climbing Oakland Center
Sun 12:47:23 PM 37.6900 -122.0983 44° Northeast 178 205 8,200 590 Climbing Oakland Center
Sun 12:48:24 PM 37.7292 -122.0569 40° Northeast 182 209 8,800 634 Climbing Oakland Center
Sun 12:49:26 PM 37.7703 -122.0178 37° Northeast 185 213 9,500 732 Climbing Oakland Center
Sun 12:50:27 PM 37.8153 -121.9717 39° Northeast 176 203 10,300 683 Climbing Oakland Center
Sun 12:51:29 PM 37.8533 -121.9322 39° Northeast 177 204 10,900 341 Climbing Oakland Center
Sun 12:52:30 PM 37.8869 -121.8847 48° Northeast 181 208 11,000 146 Climbing Oakland Center
Sun 12:53:32 PM 37.9214 -121.8303 51° Northeast 197 227 11,200  Climbing Oakland Center
Sun 12:54:33 PM 37.9592 -121.7758 49° Northeast 204 235 11,000 -146 Descending Oakland Center
Sun 12:55:35 PM 37.9992 -121.7217 47° Northeast 212 244 10,900 -49 Descending Oakland Center
Sun 12:56:36 PM 38.0386 -121.6664 48° Northeast 212 244 10,900  Level Oakland Center
Sun 12:57:38 PM 38.0778 -121.6117 48° Northeast 210 242 10,900  Level Oakland Center
Sun 12:58:39 PM 38.1233 -121.5458 49° Northeast 207 238 10,900  Level Oakland Center
Sun 12:59:41 PM 38.1633 -121.4931 46° Northeast 207 238 10,900 48 Level Oakland Center
Sun 01:00:43 PM 38.1958 -121.4467 48° Northeast 201 231 11,000 49 Climbing Oakland Center
Sun 01:01:44 PM 38.2422 -121.3814 48° Northeast 205 236 11,000  Level Oakland Center
Sun 01:02:46 PM 38.2803 -121.3278 48° Northeast 206 237 11,000  Level Oakland Center
Sun 01:03:47 PM 38.3172 -121.2728 49° Northeast 206 237 11,000  Level Oakland Center
Sun 01:04:49 PM 38.3547 -121.2194 48° Northeast 205 236 11,000  Level Oakland Center
Sun 01:05:50 PM 38.3922 -121.1647 49° Northeast 206 237 11,000  Level Oakland Center
Sun 01:06:52 PM 38.4306 -121.1100 48° Northeast 210 242 11,000  Level Oakland Center
Sun 01:07:54 PM 38.4767 -121.0444 48° Northeast 210 242 11,000  Level Oakland Center
Sun 01:08:55 PM 38.5147 -120.9883 49° Northeast 212 244 11,000  Level Oakland Center
Sun 01:09:57 PM 38.5539 -120.9325 48° Northeast 213 245 11,000  Level Oakland Center
Sun 01:10:59 PM 38.5925 -120.8775 48° Northeast 211 243 11,000  Level Oakland Center
Sun 01:12:00 PM 38.6308 -120.8206 49° Northeast 212 244 11,000  Level Oakland Center
Sun 01:13:02 PM 38.6694 -120.7653 48° Northeast 210 242 11,000  Level Oakland Center
Sun 01:14:03 PM 38.7072 -120.7086 49° Northeast 211 243 11,000  Level Oakland Center
Sun 01:15:05 PM 38.7536 -120.6411 49° Northeast 214 246 11,000 293 Level Oakland Center
Sun 01:16:06 PM 38.7897 -120.5900 48° Northeast 197 227 11,600 439 Climbing Oakland Center
Sun 01:17:08 PM 38.8147 -120.5317 61° Northeast 190 219 11,900 293 Climbing Oakland Center
Sun 01:18:09 PM 38.8408 -120.4736 60° Northeast 189 217 12,200 341 Climbing Oakland Center
Sun 01:19:11 PM 38.8639 -120.4172 62° Northeast 182 209 12,600 339 Climbing Oakland Center
Sun 01:20:13 PM 38.8894 -120.3586 61° Northeast 188 216 12,900 98 Climbing Oakland Center
Sun 01:21:14 PM 38.9133 -120.2992 63° Northeast 190 219 12,800 -49 Descending Oakland Center
Sun 01:22:16 PM 38.9400 -120.2350 62° Northeast 201 231 12,800  Level Oakland Center
Sun 01:23:18 PM 38.9750 -120.1542 61° Northeast 218 251 12,800 98 Level Oakland Center
Sun 01:24:19 PM 38.9950 -120.1072 61° Northeast 211 243 13,000 98 Climbing Oakland Center
Sun 01:25:21 PM 39.0292 -120.0261 62° Northeast 216 249 13,000  Level Oakland Center
Sun 01:26:22 PM 39.0583 -119.9592 61° Northeast 215 247 13,000  Level Oakland Center
Sun 01:27:24 PM 39.0858 -119.8903 63° Northeast 216 249 13,000  Level Oakland Center
Sun 01:28:26 PM 39.1186 -119.8089 63° Northeast 213 245 13,000  Level Oakland Center
Sun 01:29:27 PM 39.1469 -119.7414 62° Northeast 213 245 13,000  Level Oakland Center
Sun 01:30:29 PM 39.1753 -119.6739 62° Northeast 214 246 13,000  Level Oakland Center
Sun 01:31:30 PM 39.2036 -119.6058 62° Northeast 214 246 13,000  Level Oakland Center
Sun 01:32:32 PM 39.2317 -119.5381 62° Northeast 214 246 13,000  Level Oakland Center
Sun 01:33:34 PM 39.2597 -119.4708 62° Northeast 213 245 13,000 49 Level Oakland Center
Sun 01:34:35 PM 39.2875 -119.4031 62° Northeast 213 245 13,100 49 Climbing Oakland Center
Sun 01:35:37 PM 39.3153 -119.3342 62° Northeast 216 249 13,100  Level Oakland Center
Sun 01:36:38 PM 39.3489 -119.2514 62° Northeast 216 249 13,100  Level Oakland Center
Sun 01:37:40 PM 39.3772 -119.1825 62° Northeast 217 250 13,100  Level Oakland Center
Sun 01:38:42 PM 39.4053 -119.1131 62° Northeast 217 250 13,100  Level Oakland Center
Sun 01:39:43 PM 39.4306 -119.0511 62° Northeast 215 247 13,100  Level Oakland Center
Sun 01:40:45 PM 39.4578 -118.9833 62° Northeast 213 245 13,100  Level Oakland Center
Sun 01:41:47 PM 39.4883 -118.9086 62° Northeast 214 246 13,100  Level Oakland Center
Sun 01:42:48 PM 39.5161 -118.8394 62° Northeast 214 246 13,100  Level Oakland Center
Sun 01:43:50 PM 39.5444 -118.7697 62° Northeast 216 249 13,100  Level Oakland Center
Sun 01:44:52 PM 39.5717 -118.7000 63° Northeast 214 246 13,100 194 Level Oakland Center
Sun 01:45:54 PM 39.5983 -118.6336 62° Northeast 208 239 13,500 293 Climbing Oakland Center
Sun 01:46:55 PM 39.6236 -118.5708 62° Northeast 198 228 13,700 244 Climbing Oakland Center
Sun 01:47:57 PM 39.6536 -118.4947 63° Northeast 197 227 14,000 293 Climbing Oakland Center
Sun 01:48:58 PM 39.6783 -118.4322 63° Northeast 196 226 14,300 244 Climbing Oakland Center
Sun 01:50:00 PM 39.7036 -118.3681 63° Northeast 198 228 14,500 194 Climbing Oakland Center
Sun 01:51:02 PM 39.7289 -118.3039 63° Northeast 199 229 14,700 194 Climbing Oakland Center
Sun 01:52:04 PM 39.7539 -118.2397 63° Northeast 198 228 14,900 195 Climbing Oakland Center
Sun 01:53:05 PM 39.7797 -118.1750 63° Northeast 201 231 15,100 98 Climbing Oakland Center
Sun 01:54:07 PM 39.8064 -118.1081 63° Northeast 206 237 15,100  Level Oakland Center
Sun 01:55:09 PM 39.8342 -118.0375 63° Northeast 216 249 15,100  Level Oakland Center
Sun 01:56:11 PM 39.8675 -117.9528 63° Northeast 219 252 15,100  Level Oakland Center
Sun 01:57:12 PM 39.8947 -117.8808 64° Northeast 221 254 15,100  Level Oakland Center
Sun 01:58:14 PM 39.9233 -117.8075 63° Northeast 224 258 15,100 -48 Level Oakland Center
Sun 01:59:16 PM 39.9514 -117.7350 63° Northeast 225 259 15,000 -48 Descending Oakland Center
Sun 02:00:18 PM 39.9794 -117.6628 63° Northeast 223 257 15,000  Level Oakland Center
Sun 02:01:20 PM 40.0081 -117.5900 63° Northeast 225 259 15,000  Level Oakland Center
Sun 02:02:22 PM 40.0350 -117.5186 64° Northeast 221 254 15,000  Level Oakland Center
Sun 02:03:23 PM 40.0686 -117.4306 63° Northeast 224 258 15,000  Level Oakland Center
Sun 02:04:25 PM 40.0958 -117.3597 63° Northeast 221 254 15,000  Level Oakland Center
Sun 02:05:27 PM 40.1208 -117.2942 63° Northeast 223 257 15,000  Level Oakland Center
Sun 02:06:29 PM 40.1511 -117.2139 64° Northeast 222 255 15,000  Level Oakland Center
Sun 02:07:30 PM 40.1772 -117.1453 64° Northeast 221 254 15,000  Level Oakland Center
Sun 02:08:32 PM 40.2069 -117.0644 64° Northeast 221 254 15,000  Level Oakland Center
Sun 02:09:34 PM 40.2300 -116.9936 67° East 221 254 15,000  Level Oakland Center
Sun 02:10:36 PM 40.2578 -116.9128 66° East 221 254 15,000  Level Oakland Center
Sun 02:11:37 PM 40.2794 -116.8406 69° East 223 257 15,000  Level Oakland Center
Sun 02:12:39 PM 40.3003 -116.7572 72° East 220 253 15,000  Level Oakland Center
Sun 02:13:41 PM 40.3156 -116.6844 75° East 218 251 15,000  Level Oakland Center
Sun 02:14:43 PM 40.3367 -116.6006 72° East 219 252 15,000  Level Oakland Center
Sun 02:15:45 PM 40.3633 -116.5344 62° Northeast 217 250 15,000  Level Oakland Center
Sun 02:17:08 PM 40.4031 -116.4350 62° Northeast 215 247 15,000  Level Salt Lake Center
Sun 02:18:10 PM 40.4289 -116.3686 63° Northeast 215 247 15,000  Level Salt Lake Center
Sun 02:19:12 PM 40.4589 -116.2903 63° Northeast 215 247 15,000  Level Salt Lake Center
Sun 02:20:14 PM 40.4844 -116.2233 63° Northeast 215 247 15,000  Level Salt Lake Center
Sun 02:21:16 PM 40.5156 -116.1433 63° Northeast 217 250 15,000  Level Salt Lake Center
Sun 02:22:18 PM 40.5419 -116.0753 63° Northeast 219 252 15,000  Level Salt Lake Center
Sun 02:23:20 PM 40.5706 -115.9953 65° Northeast 218 251 15,000  Level Salt Lake Center
Sun 02:24:22 PM 40.5858 -115.9242 74° East 214 246 15,000  Level Salt Lake Center
Sun 02:25:24 PM 40.6078 -115.8431 70° East 212 244 15,000  Level Salt Lake Center
Sun 02:26:26 PM 40.6197 -115.7689 78° East 214 246 15,000  Level Salt Lake Center
Sun 02:27:28 PM 40.6408 -115.6875 71° East 211 243 15,000  Level Salt Lake Center
Sun 02:28:30 PM 40.6675 -115.6231 61° Northeast 209 241 15,000  Level Salt Lake Center
Sun 02:29:32 PM 40.6942 -115.5564 62° Northeast 212 244 15,000  Level Salt Lake Center
Sun 02:30:34 PM 40.7256 -115.4806 61° Northeast 212 244 15,000  Level Salt Lake Center
Sun 02:31:36 PM 40.7514 -115.4136 63° Northeast 213 245 15,000  Level Salt Lake Center
Sun 02:32:38 PM 40.7833 -115.3361 61° Northeast 215 247 15,000  Level Salt Lake Center
Sun 02:33:40 PM 40.8111 -115.2683 62° Northeast 218 251 15,000  Level Salt Lake Center
Sun 02:34:42 PM 40.8417 -115.1894 63° Northeast 217 250 15,000  Level Salt Lake Center
Sun 02:35:44 PM 40.8667 -115.1219 64° Northeast 215 247 15,000  Level Salt Lake Center
Sun 02:36:46 PM 40.8975 -115.0450 62° Northeast 213 245 15,000  Level Salt Lake Center
Sun 02:37:48 PM 40.9244 -114.9792 62° Northeast 213 245 15,000  Level Salt Lake Center
Sun 02:38:50 PM 40.9544 -114.9011 63° Northeast 212 244 15,000  Level Salt Lake Center
Sun 02:39:52 PM 40.9797 -114.8342 63° Northeast 212 244 15,000  Level Salt Lake Center
Sun 02:40:55 PM 41.0106 -114.7569 62° Northeast 213 245 15,000  Level Salt Lake Center
Sun 02:41:57 PM 41.0356 -114.6911 63° Northeast 210 242 15,000 48 Level Salt Lake Center
Sun 02:42:59 PM 41.0592 -114.6111 69° East 213 245 15,100 48 Climbing Salt Lake Center
Sun 02:44:01 PM 41.0731 -114.5344 76° East 215 247 15,100  Level Salt Lake Center
Sun 02:45:03 PM 41.0944 -114.4650 68° East 207 238 15,100  Level Salt Lake Center
Sun 02:46:05 PM 41.1264 -114.4028 56° Northeast 202 232 15,100  Level Salt Lake Center
Sun 02:47:07 PM 41.1539 -114.3364 61° Northeast 205 236 15,100  Level Salt Lake Center
Sun 02:48:09 PM 41.1881 -114.2550 61° Northeast 210 242 15,100  Level Salt Lake Center
Sun 02:49:11 PM 41.2169 -114.1867 61° Northeast 211 243 15,100  Level Salt Lake Center
Sun 02:50:13 PM 41.2467 -114.1172 60° Northeast 214 246 15,100 -32 Level Salt Lake Center
Sun 02:52:17 PM 41.3047 -113.9794 61° Northeast 214 246 15,000  Descending Salt Lake Center
Sun 02:53:19 PM 41.3331 -113.9122 61° Northeast 213 245 15,100 48 Climbing Salt Lake Center
Sun 02:54:21 PM 41.3661 -113.8300 62° Northeast 211 243 15,100 -48 Level Salt Lake Center
Sun 02:55:23 PM 41.3831 -113.7542 73° East 213 245 15,000  Descending Salt Lake Center
Sun 02:56:25 PM 41.3969 -113.6775 76° East 214 246 15,100 48 Climbing Salt Lake Center
Sun 02:57:27 PM 41.4122 -113.6006 75° East 215 247 15,100  Level Salt Lake Center
Sun 02:58:29 PM 41.4269 -113.5242 76° East 215 247 15,100 -48 Level Salt Lake Center
Sun 02:59:31 PM 41.4419 -113.4478 75° East 214 246 15,000 -48 Descending Salt Lake Center
Sun 03:00:33 PM 41.4611 -113.3539 75° East 216 249 15,000 48 Level Salt Lake Center
Sun 03:01:35 PM 41.4772 -113.2767 74° East 216 249 15,100  Climbing Salt Lake Center
Sun 03:02:37 PM 41.4914 -113.2006 76° East 215 247 15,000 -48 Descending Salt Lake Center
Sun 03:03:39 PM 41.5061 -113.1264 75° East 212 244 15,000 -48 Level Salt Lake Center
Sun 03:04:41 PM 41.5206 -113.0517 75° East 210 242 14,900  Descending Salt Lake Center
Sun 03:05:43 PM 41.5350 -112.9753 76° East 210 242 15,000  Climbing Salt Lake Center
Sun 03:06:45 PM 41.5531 -112.8858 75° East 210 242 14,900 -48 Descending Salt Lake Center
Sun 03:07:47 PM 41.5675 -112.8111 75° East 208 239 14,900  Level Salt Lake Center
Sun 03:08:49 PM 41.5817 -112.7361 76° East 209 241 14,900  Level Salt Lake Center
Sun 03:09:51 PM 41.5961 -112.6619 75° East 208 239 14,900  Level Salt Lake Center
Sun 03:10:54 PM 41.6106 -112.5883 75° East 206 237 14,900  Level Salt Lake Center
Sun 03:11:56 PM 41.6247 -112.5133 76° East 206 237 14,900 48 Level Salt Lake Center
Sun 03:12:58 PM 41.6414 -112.4250 76° East 204 235 15,000 48 Climbing Salt Lake Center
Sun 03:14:00 PM 41.6544 -112.3517 77° East 204 235 15,000 -48 Level Salt Lake Center
Sun 03:15:02 PM 41.6700 -112.2781 74° East 204 235 14,900  Descending Salt Lake Center
Sun 03:16:04 PM 41.6836 -112.2031 76° East 207 238 15,000  Climbing Salt Lake Center
Sun 03:17:06 PM 41.6972 -112.1286 76° East 208 239 14,900  Descending Salt Lake Center
Sun 03:18:08 PM 41.7100 -112.0567 77° East 201 231 15,000 48 Climbing Salt Lake Center
Sun 03:19:10 PM 41.7244 -111.9822 75° East 207 238 15,000  Level Salt Lake Center
Sun 03:20:12 PM 41.7403 -111.8931 77° East 206 237 15,000  Level Salt Lake Center
Sun 03:21:14 PM 41.7544 -111.8194 76° East 204 235 15,000  Level Salt Lake Center
Sun 03:22:16 PM 41.7667 -111.7467 77° East 201 231 15,000  Level Salt Lake Center
Sun 03:23:18 PM 41.7808 -111.6742 75° East 201 231 15,000 -48 Level Salt Lake Center
Sun 03:24:20 PM 41.7933 -111.6022 77° East 200 230 14,900  Descending Salt Lake Center
Sun 03:25:22 PM 41.8111 -111.5297 72° East 203 234 15,000 48 Climbing Salt Lake Center
Sun 03:26:24 PM 41.8356 -111.4442 69° East 204 235 15,000  Level Salt Lake Center
Sun 03:27:26 PM 41.8578 -111.3744 67° East 206 237 15,000  Level Salt Lake Center
Sun 03:28:28 PM 41.8717 -111.2997 76° East 207 238 15,000  Level Salt Lake Center
Sun 03:29:30 PM 41.8850 -111.2228 77° East 208 239 15,000  Level Salt Lake Center
Sun 03:30:32 PM 41.8981 -111.1486 77° East 207 238 15,000  Level Salt Lake Center
Sun 03:31:34 PM 41.9158 -111.0758 72° East 206 237 15,000 -48 Level Salt Lake Center
Sun 03:32:36 PM 41.9386 -110.9883 71° East 208 239 14,900 48 Descending Salt Lake Center
Sun 03:33:38 PM 41.9436 -110.9111 85° East 208 239 15,100 97 Climbing Salt Lake Center
Sun 03:34:40 PM 41.9542 -110.8364 79° East 212 244 15,100  Level Salt Lake Center
Sun 03:35:43 PM 41.9589 -110.7475 86° East 213 245 15,100  Level Salt Lake Center
Sun 03:36:45 PM 41.9619 -110.6719 87° East 213 245 15,100 -48 Level Salt Lake Center
Sun 03:37:47 PM 41.9733 -110.5853 80° East 212 244 15,000  Descending Salt Lake Center
Sun 03:38:49 PM 41.9872 -110.5128 76° East 210 242 15,100 48 Climbing Salt Lake Center
Sun 03:39:51 PM 42.0017 -110.4281 77° East 208 239 15,100  Level Salt Lake Center
Sun 03:40:53 PM 42.0139 -110.3533 78° East 213 245 15,100  Level Salt Lake Center
Sun 03:41:55 PM 42.0297 -110.2683 76° East 211 243 15,100  Level Salt Lake Center
Sun 03:42:57 PM 42.0378 -110.1931 82° East 212 244 15,100  Level Salt Lake Center
Sun 03:43:59 PM 42.0378 -110.1172 90° East 212 244 15,100  Level Salt Lake Center
Sun 03:45:01 PM 42.0417 -110.0300 87° East 210 242 15,100  Level Salt Lake Center
Sun 03:46:03 PM 42.0447 -109.9544 87° East 211 243 15,100  Level Salt Lake Center
Sun 03:47:05 PM 42.0461 -109.8647 89° East 214 246 15,100  Level Salt Lake Center
Sun 03:48:07 PM 42.0514 -109.7883 85° East 215 247 15,100  Level Salt Lake Center
Sun 03:49:09 PM 42.0647 -109.7006 78° East 214 246 15,100  Level Salt Lake Center
Sun 03:50:11 PM 42.0769 -109.6261 78° East 213 245 15,100  Level Salt Lake Center
Sun 03:51:13 PM 42.0939 -109.5394 75° East 214 246 15,100  Level Salt Lake Center
Sun 03:53:20 PM 42.1225 -109.3775 77° East 213 245 15,100  Level Denver Center
Sun 03:54:19 PM 42.1350 -109.3061 77° East 212 244 15,100  Level Salt Lake Center
Sun 03:55:21 PM 42.1475 -109.2200 79° East 210 242 15,100 145 Level Salt Lake Center
Sun 03:56:23 PM 42.1550 -109.1461 82° East 209 241 15,400 242 Climbing Salt Lake Center
Sun 03:57:25 PM 42.1661 -109.0650 80° East 200 230 15,600 194 Climbing Salt Lake Center
Sun 03:58:27 PM 42.1767 -108.9969 78° East 196 226 15,800 194 Climbing Salt Lake Center
Sun 03:59:29 PM 42.1878 -108.9294 77° East 194 223 16,000 145 Climbing Salt Lake Center
Sun 04:00:31 PM 42.2008 -108.8483 78° East 198 228 16,100 48 Climbing Salt Lake Center
Sun 04:01:33 PM 42.2119 -108.7767 78° East 202 232 16,100  Level Salt Lake Center
Sun 04:02:36 PM 42.2264 -108.6917 77° East 206 237 16,100  Level Salt Lake Center
Sun 04:03:38 PM 42.2383 -108.6169 78° East 209 241 16,100 -48 Level Salt Lake Center
Sun 04:04:40 PM 42.2511 -108.5311 79° East 210 242 16,000 -48 Descending Salt Lake Center
Sun 04:05:42 PM 42.2633 -108.4578 77° East 209 241 16,000  Level Salt Lake Center
Sun 04:06:44 PM 42.2786 -108.3722 76° East 211 243 16,000 -48 Level Salt Lake Center
Sun 04:07:46 PM 42.2969 -108.3025 70° East 208 239 15,900  Descending Salt Lake Center
Sun 04:08:48 PM 42.3164 -108.2214 72° East 204 235 16,000 48 Climbing Salt Lake Center
Sun 04:09:50 PM 42.3361 -108.1533 69° East 204 235 16,000 -48 Level Salt Lake Center
Sun 04:10:52 PM 42.3575 -108.0711 71° East 206 237 15,900  Descending Salt Lake Center
Sun 04:11:54 PM 42.3747 -107.9989 72° East 209 241 16,000  Climbing Salt Lake Center
Sun 04:12:56 PM 42.3942 -107.9156 72° East 208 239 15,900 -48 Descending Salt Lake Center
Sun 04:13:58 PM 42.4108 -107.8425 73° East 210 242 15,900  Level Salt Lake Center
Sun 04:15:00 PM 42.4161 -107.7539 85° East 211 243 15,900  Level Salt Lake Center
Sun 04:16:02 PM 42.4217 -107.6775 84° East 212 244 15,900 -48 Level Salt Lake Center
Sun 04:17:04 PM 42.4236 -107.6011 88° East 211 243 15,800  Descending Salt Lake Center
Sun 04:18:06 PM 42.4269 -107.5125 87° East 212 244 15,900 48 Climbing Salt Lake Center
Sun 04:19:08 PM 42.4300 -107.4347 87° East 214 246 15,900 -48 Level Salt Lake Center
Sun 04:20:10 PM 42.4328 -107.3444 88° East 216 249 15,800  Descending Salt Lake Center
Sun 04:21:12 PM 42.4278 -107.2647 95° East 218 251 15,900 93 Climbing Salt Lake Center
Sun 04:22:19 PM 42.4203 -107.1747 96° East 217 250 16,000 47 Climbing Denver Center
Sun 04:23:21 PM 42.4142 -107.0867 95° East 212 244 16,000  Level Denver Center
Sun 04:24:23 PM 42.4086 -107.0097 96° East 214 246 16,000  Level Denver Center
Sun 04:25:25 PM 42.4183 -106.9200 82° East 216 249 16,000  Level Denver Center
Sun 04:26:27 PM 42.4297 -106.8411 79° East 212 244 16,000  Level Denver Center
Sun 04:27:29 PM 42.4331 -106.7644 87° East 214 246 16,000  Level Denver Center
Sun 04:28:31 PM 42.4367 -106.6775 87° East 212 244 16,000  Level Denver Center
Sun 04:29:33 PM 42.4567 -106.6072 69° East 209 241 16,000  Level Denver Center
Sun 04:30:35 PM 42.4764 -106.5225 72° East 211 243 16,000  Level Denver Center
Sun 04:31:37 PM 42.4900 -106.4492 76° East 210 242 16,000  Level Denver Center
Sun 04:32:39 PM 42.5136 -106.3683 68° East 207 238 16,000  Level Denver Center
Sun 04:33:41 PM 42.5369 -106.2978 66° East 212 244 16,000  Level Denver Center
Sun 04:34:44 PM 42.5617 -106.2142 68° East 214 246 16,000  Level Denver Center
Sun 04:35:46 PM 42.5836 -106.1450 67° East 209 241 16,000  Level Denver Center
Sun 04:36:48 PM 42.6022 -106.0733 71° East 211 243 16,000  Level Denver Center
Sun 04:37:50 PM 42.6281 -105.9897 67° East 214 246 16,000  Level Denver Center
Sun 04:38:52 PM 42.6472 -105.9192 70° East 211 243 16,000  Level Denver Center
Sun 04:39:54 PM 42.6733 -105.8369 67° East 211 243 16,000  Level Denver Center
Sun 04:40:56 PM 42.6967 -105.7653 66° East 214 246 16,000  Level Denver Center
Sun 04:41:58 PM 42.7239 -105.6817 66° East 215 247 16,000  Level Denver Center
Sun 04:43:00 PM 42.7467 -105.6100 67° East 216 249 16,000  Level Denver Center
Sun 04:44:02 PM 42.7744 -105.5283 65° Northeast 214 246 16,000  Level Denver Center
Sun 04:45:05 PM 42.7994 -105.4581 64° Northeast 214 246 16,000  Level Denver Center
Sun 04:46:06 PM 42.8281 -105.3772 64° Northeast 214 246 16,000  Level Denver Center
Sun 04:47:08 PM 42.8472 -105.3067 70° East 211 243 16,000  Level Denver Center
Sun 04:48:11 PM 42.8572 -105.2169 81° East 214 246 16,000  Level Denver Center
Sun 04:49:13 PM 42.8669 -105.1406 80° East 213 245 16,000  Level Denver Center
Sun 04:50:15 PM 42.8817 -105.0531 77° East 212 244 16,000  Level Denver Center
Sun 04:51:17 PM 42.8908 -104.9750 81° East 214 246 16,000  Level Denver Center
Sun 04:52:19 PM 42.8908 -104.8933 90° East 222 255 16,000  Level Denver Center
Sun 04:53:33 PM 42.8781 -104.8014 101° East 223 257 16,000  Level Denver Center
Sun 04:54:36 PM 42.8486 -104.7028 112° Southeast 221 254 16,000  Level Denver Center
Sun 04:55:38 PM 42.8156 -104.6381 125° Southeast 218 251 16,000  Level Denver Center
Sun 04:56:40 PM 42.7914 -104.5558 112° Southeast 215 247 16,000  Level Denver Center
Sun 04:57:42 PM 42.8017 -104.4814 79° East 209 241 16,000  Level Denver Center
Sun 04:58:44 PM 42.8094 -104.4083 82° East 206 237 16,000  Level Denver Center
Sun 04:59:46 PM 42.8194 -104.3211 81° East 207 238 16,000  Level Denver Center
Sun 05:00:48 PM 42.8283 -104.2450 81° East 209 241 16,000  Level Denver Center
Sun 05:01:50 PM 42.8381 -104.1556 82° East 212 244 16,000  Level Denver Center
Sun 05:02:52 PM 42.8467 -104.0769 81° East 216 249 16,000  Level Denver Center
Sun 05:03:54 PM 42.8528 -103.9875 85° East 215 247 16,000  Level Denver Center
Sun 05:04:56 PM 42.8569 -103.9097 86° East 214 246 16,000  Level Denver Center
Sun 05:05:58 PM 42.8586 -103.8203 89° East 212 244 16,000  Level Denver Center
Sun 05:07:00 PM 42.8611 -103.7414 87° East 215 247 16,000  Level Denver Center
Sun 05:08:03 PM 42.8647 -103.6506 87° East 216 249 16,000  Level Denver Center
Sun 05:09:05 PM 42.8681 -103.5725 87° East 215 247 16,000  Level Denver Center
Sun 05:10:07 PM 42.8700 -103.4814 88° East 215 247 16,000  Level Denver Center
Sun 05:11:09 PM 42.8664 -103.4042 94° East 214 246 16,000  Level Denver Center
Sun 05:12:11 PM 42.8614 -103.3142 94° East 213 245 16,000  Level Denver Center
Sun 05:13:13 PM 42.8564 -103.2361 95° East 215 247 16,000  Level Denver Center
Sun 05:14:15 PM 42.8506 -103.1572 96° East 216 249 16,000  Level Denver Center
Sun 05:15:17 PM 42.8481 -103.0686 92° East 214 246 16,000  Level Denver Center
Sun 05:16:19 PM 42.8478 -102.9942 90° East 210 242 16,000  Level Denver Center
Sun 05:17:21 PM 42.8603 -102.9089 79° East 206 237 16,000  Level Denver Center
Sun 05:18:23 PM 42.8697 -102.8364 80° East 204 235 16,000  Level Denver Center
Sun 05:19:25 PM 42.8806 -102.7528 80° East 202 232 16,000  Level Denver Center
Sun 05:20:28 PM 42.8889 -102.6814 81° East 201 231 16,000 96 Level Denver Center
Sun 05:21:30 PM 42.8978 -102.5986 82° East 199 229 16,200 194 Climbing Denver Center
Sun 05:22:32 PM 42.9075 -102.5306 79° East 194 223 16,400 194 Climbing Denver Center
Sun 05:23:34 PM 42.9153 -102.4511 82° East 190 219 16,600 194 Climbing Denver Center
Sun 05:24:36 PM 42.9231 -102.3828 81° East 191 220 16,800 145 Climbing Denver Center
Sun 05:25:38 PM 42.9322 -102.3011 81° East 193 222 16,900 97 Climbing Denver Center
Sun 05:26:40 PM 42.9397 -102.2286 82° East 201 231 17,000 48 Climbing Denver Center
Sun 05:27:42 PM 42.9486 -102.1442 82° East 204 235 17,000  Level Denver Center
Sun 05:28:44 PM 42.9564 -102.0711 82° East 205 236 17,000  Level Denver Center
Sun 05:29:46 PM 42.9672 -101.9861 80° East 205 236 17,000  Level Denver Center
Sun 05:30:48 PM 42.9739 -101.9122 83° East 206 237 17,000  Level Denver Center
Sun 05:31:51 PM 42.9836 -101.8278 81° East 203 234 17,000  Level Denver Center
Sun 05:32:53 PM 42.9917 -101.7522 82° East 205 236 17,000  Level Denver Center
Sun 05:33:55 PM 43.0000 -101.6806 81° East 201 231 17,000  Level Denver Center
Sun 05:34:57 PM 43.0078 -101.5989 83° East 196 226 17,000  Level Denver Center
Sun 05:35:59 PM 43.0153 -101.5269 82° East 199 229 17,000  Level Denver Center
Sun 05:37:01 PM 43.0242 -101.4422 82° East 201 231 17,000  Level Denver Center
Sun 05:38:03 PM 43.0311 -101.3653 83° East 199 229 17,000  Level Denver Center
Sun 05:39:05 PM 43.0394 -101.2900 81° East 201 231 17,000  Level Denver Center
Sun 05:40:07 PM 43.0464 -101.2156 83° East 199 229 17,000  Level Denver Center
Sun 05:41:09 PM 43.0536 -101.1392 83° East 201 231 17,000  Level Denver Center
Sun 05:42:11 PM 43.0606 -101.0653 83° East 198 228 17,000  Level Denver Center
Sun 05:43:13 PM 43.0692 -100.9908 81° East 200 230 17,000  Level Denver Center
Sun 05:44:15 PM 43.0778 -100.9022 82° East 199 229 17,000  Level Denver Center
Sun 05:45:18 PM 43.0856 -100.8264 82° East 200 230 17,000  Level Denver Center
Sun 05:46:20 PM 43.0928 -100.7525 82° East 198 228 17,000  Level Denver Center
Sun 05:47:22 PM 43.1019 -100.6781 80° East 200 230 17,000  Level Denver Center
Sun 05:48:24 PM 43.1139 -100.6061 77° East 195 224 17,000  Level Denver Center
Sun 05:49:26 PM 43.1256 -100.5322 78° East 199 229 17,000  Level Denver Center
Sun 05:50:28 PM 43.1394 -100.4458 78° East 195 224 17,000  Level Denver Center
Sun 05:51:30 PM 43.1447 -100.3725 84° East 194 223 17,000 48 Level Denver Center
Sun 05:52:32 PM 43.1522 -100.2994 82° East 194 223 17,100 48 Climbing Denver Center
Sun 05:53:34 PM 43.1583 -100.2250 84° East 196 226 17,100  Level Denver Center
Sun 05:54:36 PM 43.1658 -100.1514 82° East 195 224 17,100  Level Denver Center
Sun 05:55:38 PM 43.1714 -100.0775 84° East 195 224 17,100  Level Denver Center
Sun 05:56:40 PM 43.1794 -99.9906 83° East 193 222 17,100 -45 Level Denver Center
Sun 05:57:50 PM 43.1856 -99.9181 83° East 196 226 17,000 -45 Descending Minneapolis Center
Sun 05:58:53 PM 43.1933 -99.8294 83° East 195 224 17,000  Level Minneapolis Center
Sun 05:59:55 PM 43.1994 -99.7550 84° East 196 226 17,000  Level Minneapolis Center
Sun 06:01:00 PM 43.2069 -99.6792 82° East 201 231 17,000  Level Minneapolis Center
Sun 06:02:02 PM 43.2122 -99.6169 83° East 204 235 17,000  Level Minneapolis Center
Sun 06:03:05 PM 43.2214 -99.5078 83° East 207 238 17,000  Level Minneapolis Center
Sun 06:04:07 PM 43.2272 -99.4289 84° East 208 239 17,000 48 Level Minneapolis Center
Sun 06:05:09 PM 43.2342 -99.3503 83° East 209 241 17,100 48 Climbing Minneapolis Center
Sun 06:06:11 PM 43.2403 -99.2711 84° East 210 242 17,100  Level Minneapolis Center
Sun 06:07:13 PM 43.2467 -99.1903 84° East 212 244 17,100  Level Minneapolis Center
Sun 06:08:15 PM 43.2528 -99.1100 84° East 212 244 17,100  Level Minneapolis Center
Sun 06:09:17 PM 43.2608 -99.0142 83° East 212 244 17,100  Level Minneapolis Center
Sun 06:10:19 PM 43.2669 -98.9292 84° East 212 244 17,100  Level Minneapolis Center
Sun 06:11:21 PM 43.2731 -98.8497 84° East 212 244 17,100  Level Minneapolis Center
Sun 06:12:23 PM 43.2794 -98.7689 84° East 212 244 17,100  Level Minneapolis Center
Sun 06:13:25 PM 43.2853 -98.6897 84° East 210 242 17,100  Level Minneapolis Center
Sun 06:14:28 PM 43.2917 -98.6119 84° East 209 241 17,100  Level Minneapolis Center
Sun 06:15:30 PM 43.2978 -98.5325 84° East 209 241 17,100  Level Minneapolis Center
Sun 06:16:32 PM 43.3047 -98.4364 84° East 213 245 17,100  Level Minneapolis Center
Sun 06:17:34 PM 43.3111 -98.3567 84° East 212 244 17,100  Level Minneapolis Center
Sun 06:18:36 PM 43.3164 -98.2761 85° East 213 245 17,100  Level Minneapolis Center
Sun 06:19:38 PM 43.3222 -98.1961 84° East 213 245 17,100  Level Minneapolis Center
Sun 06:20:40 PM 43.3275 -98.1164 85° East 211 243 17,100  Level Minneapolis Center
Sun 06:21:42 PM 43.3339 -98.0356 84° East 214 246 17,100  Level Minneapolis Center
Sun 06:22:44 PM 43.3408 -97.9403 84° East 210 242 17,100  Level Minneapolis Center
Sun 06:23:46 PM 43.3464 -97.8625 84° East 206 237 17,100  Level Minneapolis Center
Sun 06:24:48 PM 43.3503 -97.7983 85° East 209 241 17,100  Level Minneapolis Center
Sun 06:25:51 PM 43.3569 -97.7008 85° East 213 245 17,100  Level Minneapolis Center
Sun 06:26:53 PM 43.3622 -97.6194 85° East 214 246 17,100  Level Minneapolis Center
Sun 06:27:55 PM 43.3689 -97.5208 85° East 217 250 17,100  Level Minneapolis Center
Sun 06:28:57 PM 43.3742 -97.4392 85° East 216 249 17,100  Level Minneapolis Center
Sun 06:29:59 PM 43.3786 -97.3578 86° East 215 247 17,100  Level Minneapolis Center
Sun 06:31:01 PM 43.3850 -97.2742 84° East 218 251 17,100  Level Minneapolis Center
Sun 06:32:03 PM 43.3889 -97.1936 86° East 215 247 17,100  Level Minneapolis Center
Sun 06:33:05 PM 43.3947 -97.1117 84° East 216 249 17,100  Level Minneapolis Center
Sun 06:34:07 PM 43.4003 -97.0139 85° East 215 247 17,100  Level Minneapolis Center
Sun 06:35:09 PM 43.4047 -96.9319 86° East 215 247 17,100  Level Minneapolis Center
Sun 06:36:11 PM 43.4103 -96.8517 85° East 214 246 17,100  Level Minneapolis Center
Sun 06:37:13 PM 43.4147 -96.7697 86° East 215 247 17,100  Level Minneapolis Center
Sun 06:38:16 PM 43.4203 -96.6889 85° East 214 246 17,100  Level Minneapolis Center
Sun 06:39:18 PM 43.4253 -96.5917 86° East 214 246 17,100  Level Minneapolis Center
Sun 06:40:20 PM 43.4303 -96.5114 85° East 212 244 17,100  Level Minneapolis Center
Sun 06:41:22 PM 43.4350 -96.4317 85° East 211 243 17,100  Level Minneapolis Center
Sun 06:42:24 PM 43.4389 -96.3536 86° East 209 241 17,100  Level Minneapolis Center
Sun 06:43:26 PM 43.4436 -96.2728 85° East 212 244 17,100  Level Minneapolis Center
Sun 06:44:28 PM 43.4481 -96.1925 86° East 212 244 17,100 -48 Level Minneapolis Center
Sun 06:45:30 PM 43.4528 -96.0950 86° East 215 247 17,000 -48 Descending Minneapolis Center
Sun 06:46:32 PM 43.4569 -96.0128 86° East 218 251 17,000  Level Minneapolis Center
Sun 06:47:34 PM 43.4611 -95.9314 86° East 215 247 17,000  Level Minneapolis Center
Sun 06:48:36 PM 43.4539 -95.8467 97° East 223 257 17,000  Level Minneapolis Center
Sun 06:49:38 PM 43.4294 -95.7708 114° Southeast 222 255 17,000  Level Minneapolis Center
Sun 06:50:40 PM 43.4208 -95.6772 97° East 215 247 17,000  Level Minneapolis Center
Sun 06:51:42 PM 43.4267 -95.5958 84° East 216 249 17,000  Level Minneapolis Center
Sun 06:52:44 PM 43.4361 -95.5178 81° East 212 244 17,000  Level Minneapolis Center
Sun 06:53:46 PM 43.4367 -95.4369 89° East 213 245 17,000  Level Minneapolis Center
Sun 06:54:48 PM 43.4425 -95.3564 84° East 213 245 17,000  Level Minneapolis Center
Sun 06:55:50 PM 43.4467 -95.2753 86° East 212 244 17,000  Level Minneapolis Center
Sun 06:56:52 PM 43.4531 -95.1778 85° East 213 245 17,000  Level Minneapolis Center
Sun 06:57:55 PM 43.4575 -95.0961 86° East 214 246 17,000  Level Minneapolis Center
Sun 06:58:57 PM 43.4636 -95.0161 84° East 212 244 17,000  Level Minneapolis Center
Sun 06:59:59 PM 43.4694 -94.9342 84° East 215 247 17,000  Level Minneapolis Center
Sun 07:01:01 PM 43.4736 -94.8528 86° East 214 246 17,000  Level Minneapolis Center
Sun 07:02:03 PM 43.4781 -94.7725 86° East 211 243 17,000  Level Minneapolis Center
Sun 07:03:05 PM 43.4844 -94.6756 85° East 213 245 17,000  Level Minneapolis Center
Sun 07:04:07 PM 43.4894 -94.5942 85° East 214 246 17,000  Level Minneapolis Center
Sun 07:05:09 PM 43.4942 -94.5136 85° East 213 245 17,000  Level Minneapolis Center
Sun 07:06:11 PM 43.4983 -94.4339 86° East 211 243 17,000  Level Minneapolis Center
Sun 07:07:13 PM 43.5042 -94.3519 84° East 213 245 17,000  Level Minneapolis Center
Sun 07:08:15 PM 43.5089 -94.2553 86° East 212 244 17,000  Level Minneapolis Center
Sun 07:09:17 PM 43.5119 -94.1872 86° East 216 249 17,000  Level Minneapolis Center
Sun 07:10:19 PM 43.5172 -94.0922 86° East 211 243 17,000  Level Minneapolis Center
Sun 07:11:21 PM 43.5217 -94.0258 85° East 215 247 17,000  Level Minneapolis Center
Sun 07:12:23 PM 43.5269 -93.9292 86° East 214 246 17,000  Level Minneapolis Center
Sun 07:13:25 PM 43.5300 -93.8461 87° East 217 250 17,000  Level Minneapolis Center
Sun 07:14:27 PM 43.5361 -93.7503 85° East 213 245 17,000  Level Minneapolis Center
Sun 07:15:30 PM 43.5394 -93.6692 87° East 213 245 17,000  Level Minneapolis Center
Sun 07:16:32 PM 43.5447 -93.5825 85° East 216 249 17,000  Level Minneapolis Center
Sun 07:17:34 PM 43.5492 -93.5000 86° East 217 250 17,000  Level Minneapolis Center
Sun 07:18:36 PM 43.5533 -93.4167 86° East 219 252 17,000  Level Minneapolis Center
Sun 07:19:38 PM 43.5561 -93.3336 87° East 218 251 17,000  Level Minneapolis Center
Sun 07:20:40 PM 43.5606 -93.2500 86° East 219 252 17,000  Level Minneapolis Center
Sun 07:21:54 PM 43.5658 -93.1492 86° East 221 254 17,000  Level Minneapolis Center
Sun 07:22:56 PM 43.5700 -93.0558 86° East 220 253 17,000  Level Minneapolis Center
Sun 07:23:59 PM 43.5728 -92.9736 87° East 218 251 17,000  Level Minneapolis Center
Sun 07:25:01 PM 43.5758 -92.8739 88° East 218 251 17,000  Level Minneapolis Center
Sun 07:26:03 PM 43.5750 -92.7894 91° East 221 254 17,000  Level Minneapolis Center
Sun 07:27:05 PM 43.5747 -92.7036 90° East 223 257 17,000  Level Minneapolis Center
Sun 07:28:07 PM 43.5747 -92.6192 90° East 223 257 17,000  Level Minneapolis Center
Sun 07:29:09 PM 43.5736 -92.5353 91° East 221 254 17,000 -242 Level Minneapolis Center
Sun 07:30:11 PM 43.5725 -92.4303 91° East 229 264 16,500 -484 Descending Minneapolis Center
Sun 07:31:13 PM 43.5725 -92.3353 90° East 243 280 16,000 -484 Descending Minneapolis Center
Sun 07:32:15 PM 43.5717 -92.2425 91° East 244 281 15,500 -484 Descending Minneapolis Center
Sun 07:33:17 PM 43.5711 -92.1506 90° East 241 277 15,000 -435 Descending Minneapolis Center
Sun 07:34:19 PM 43.5692 -92.0594 92° East 241 277 14,600 -484 Descending Minneapolis Center
Sun 07:35:21 PM 43.5683 -91.9464 91° East 247 284 14,000 -532 Descending Minneapolis Center
Sun 07:36:23 PM 43.5664 -91.8528 92° East 246 283 13,500 -435 Descending Minneapolis Center
Sun 07:37:25 PM 43.5656 -91.7783 91° East 246 283 13,100 -484 Descending Minneapolis Center
Sun 07:38:27 PM 43.5639 -91.6700 91° East 238 274 12,500 -581 Descending Minneapolis Center
Sun 07:39:29 PM 43.5628 -91.5814 91° East 234 269 11,900 -576 Descending Minneapolis Center
Sun 07:40:32 PM 43.5614 -91.4725 91° East 236 272 11,300 -576 Descending Minneapolis Center
Sun 07:41:34 PM 43.5592 -91.3858 92° East 232 267 10,700 -581 Descending Minneapolis Center
Sun 07:42:36 PM 43.5578 -91.2967 91° East 228 262 10,100 -537 Descending Minneapolis Center
Sun 07:43:37 PM 43.5561 -91.2217 92° East 224 258 9,600 -581 Descending Minneapolis Center
Sun 07:44:40 PM 43.5539 -91.1219 92° East 217 250 8,900 -595 Descending Minneapolis Center
Sun 07:45:28 PM 43.5536 -91.0711 90° East 215 247 8,500 -545 Descending Chicago Center
Sun 07:46:30 PM 43.5519 -90.9722 91° East 216 249 7,900 -522 Descending Chicago Center
Sun 07:47:46 PM 43.5489 -90.8589 92° East 223 257 7,300 -522 Descending Minneapolis Center
Sun 07:48:48 PM 43.5472 -90.7700 91° East 223 257 6,700 -484 Descending Minneapolis Center
Sun 07:49:50 PM 43.5453 -90.6878 92° East 222 255 6,300 -435 Descending Minneapolis Center
Sun 07:50:52 PM 43.5433 -90.5981 92° East 226 260 5,800 -486 Descending Minneapolis Center
Sun 07:51:41 PM 43.5417 -90.5286 92° East 224 258 5,400 -378 Descending Chicago Center
Sun 07:52:43 PM 43.5408 -90.4353 91° East 225 259 5,100 -290 Descending Chicago Center

Login

Don't have an account? Register now (free) for customized features, flight alerts, and more!